createdAt,value
2019-01-25T00:09:58.729Z,92.50
2019-01-25T00:21:40.894Z,92.10
2019-01-25T00:33:22.350Z,92.40
2019-01-25T00:45:06.101Z,92.20
2019-01-25T00:56:47.515Z,92.10
2019-01-25T01:08:28.844Z,92.30
2019-01-25T01:20:12.784Z,92.00
2019-01-25T01:31:54.320Z,92.20
2019-01-25T01:43:35.761Z,92.80
2019-01-25T01:55:18.107Z,92.20
2019-01-25T02:06:59.815Z,92.20
2019-01-25T02:18:41.256Z,92.30
2019-01-25T02:30:24.243Z,92.10
2019-01-25T02:42:06.823Z,92.20
2019-01-25T02:53:48.365Z,92.10
2019-01-25T03:05:30.644Z,92.30
2019-01-25T03:17:12.057Z,92.30
2019-01-25T03:28:53.536Z,92.00
2019-01-25T03:40:34.961Z,91.80
2019-01-25T03:52:16.494Z,91.90
2019-01-25T04:03:58.392Z,91.80
2019-01-25T04:15:40.753Z,91.90
2019-01-25T04:27:22.159Z,92.00
2019-01-25T04:39:06.130Z,92.00
2019-01-25T04:50:47.653Z,92.00
2019-01-25T05:02:29.192Z,91.90
2019-01-25T05:14:10.680Z,91.90
2019-01-25T05:25:52.024Z,91.90
2019-01-25T05:37:33.345Z,91.90
2019-01-25T05:49:14.784Z,92.20
2019-01-25T06:00:56.186Z,92.10
2019-01-25T06:12:38.233Z,91.90
2019-01-25T06:24:19.770Z,92.30
2019-01-25T06:36:02.062Z,92.20
2019-01-25T06:47:43.467Z,92.10
2019-01-25T06:59:24.805Z,92.00
2019-01-25T07:11:06.288Z,92.10
2019-01-25T07:22:48.715Z,92.00
2019-01-25T07:34:30.124Z,91.90
2019-01-25T07:46:12.305Z,91.70
2019-01-25T07:57:53.636Z,91.20
2019-01-25T08:09:35.374Z,91.10
2019-01-25T08:21:16.762Z,90.50
2019-01-25T08:32:58.257Z,90.20
2019-01-25T08:44:39.785Z,90.00
2019-01-25T08:56:22.107Z,87.80
2019-01-25T09:08:03.580Z,86.30
2019-01-25T09:19:44.996Z,86.50
2019-01-25T09:31:26.407Z,86.80
2019-01-25T09:43:08.016Z,85.50
2019-01-25T09:54:49.612Z,83.40
2019-01-25T10:06:31.873Z,83.70
2019-01-25T10:18:13.288Z,83.60
2019-01-25T10:29:54.734Z,84.70
2019-01-25T10:41:36.172Z,82.60
2019-01-25T10:53:18.527Z,83.10
2019-01-25T11:04:59.991Z,83.10
2019-01-25T11:16:42.332Z,83.30
2019-01-25T11:28:23.645Z,80.20
2019-01-25T11:40:17.564Z,84.00
2019-01-25T11:51:58.901Z,81.70
2019-01-25T12:03:40.402Z,81.10
2019-01-25T12:15:21.896Z,79.60
2019-01-25T12:27:04.292Z,82.70
2019-01-25T12:38:45.768Z,83.40
2019-01-25T12:50:43.324Z,79.80
2019-01-25T13:02:24.707Z,80.40
2019-01-25T13:14:06.200Z,82.60
2019-01-25T13:25:47.608Z,83.00
2019-01-25T13:37:31.544Z,82.20
2019-01-25T13:49:12.995Z,84.70
2019-01-25T14:00:54.432Z,85.20
2019-01-25T14:12:35.964Z,85.40
2019-01-25T14:24:17.421Z,83.90
2019-01-25T14:35:58.990Z,84.40
2019-01-25T14:47:41.308Z,84.60
2019-01-25T14:59:22.597Z,85.20
2019-01-25T15:11:04.040Z,84.50
2019-01-25T15:22:45.468Z,86.40
2019-01-25T15:34:27.877Z,86.50
2019-01-25T15:46:09.376Z,87.70
2019-01-25T16:10:29.103Z,87.00
2019-01-25T16:27:28.676Z,88.30
2019-01-25T16:40:28.528Z,89.00
2019-01-25T16:52:09.967Z,89.40
2019-01-25T17:03:51.637Z,88.70
2019-01-25T17:15:33.996Z,88.40
2019-01-25T17:27:15.378Z,89.50
2019-01-25T17:38:56.829Z,88.70
2019-01-25T17:50:39.319Z,88.60
2019-01-25T18:02:21.001Z,88.70
2019-01-25T18:14:02.695Z,88.40
2019-01-25T18:25:47.716Z,88.20
2019-01-25T18:42:48.037Z,87.60
2019-01-25T18:54:33.239Z,88.10
2019-01-25T19:06:17.585Z,88.90
2019-01-25T19:18:01.876Z,87.30
2019-01-25T19:29:46.269Z,87.70
2019-01-25T19:41:30.565Z,88.50
2019-01-25T19:53:16.101Z,88.90
2019-01-25T20:05:01.333Z,88.30
2019-01-25T20:16:45.741Z,89.80
2019-01-25T20:28:30.112Z,89.50
2019-01-25T20:40:17.028Z,90.10
2019-01-25T20:52:01.336Z,90.30
2019-01-25T21:03:46.185Z,90.20
2019-01-25T21:15:35.419Z,90.60
2019-01-25T21:27:17.312Z,91.00
2019-01-25T21:39:01.607Z,90.90
2019-01-25T21:50:48.444Z,90.90
2019-01-25T22:02:32.808Z,90.90
2019-01-25T22:14:17.168Z,90.40
2019-01-25T22:26:01.448Z,90.20
2019-01-25T22:37:46.779Z,90.20
2019-01-25T22:49:31.067Z,90.10
2019-01-25T23:01:19.485Z,89.40
2019-01-25T23:13:05.553Z,89.30
2019-01-25T23:24:49.934Z,89.70
2019-01-25T23:36:34.309Z,90.10
2019-01-25T23:48:18.644Z,89.60
